sensor_id;sensor_type;location;lat;lon;timestamp;pressure;altitude;pressure_sealevel;temperature;humidity
84224;BME280;74353;51.208;0.304;2024-01-25T00:02:09;102843.12;;;8.13;47.14
84224;BME280;74353;51.208;0.304;2024-01-25T00:04:37;102845.44;;;8.36;47.10
84224;BME280;74353;51.208;0.304;2024-01-25T00:07:03;102850.27;;;8.20;46.91
84224;BME280;74353;51.208;0.304;2024-01-25T00:09:30;102855.94;;;8.39;46.89
84224;BME280;74353;51.208;0.304;2024-01-25T00:11:58;102860.59;;;8.61;46.73
84224;BME280;74353;51.208;0.304;2024-01-25T00:14:25;102859.89;;;8.30;46.88
84224;BME280;74353;51.208;0.304;2024-01-25T00:16:51;102859.48;;;8.13;46.46
84224;BME280;74353;51.208;0.304;2024-01-25T00:19:17;102851.93;;;8.21;46.43
84224;BME280;74353;51.208;0.304;2024-01-25T00:21:45;102855.27;;;8.24;45.89
84224;BME280;74353;51.208;0.304;2024-01-25T00:24:12;102856.63;;;7.96;45.63
84224;BME280;74353;51.208;0.304;2024-01-25T00:26:38;102853.44;;;7.88;45.86
84224;BME280;74353;51.208;0.304;2024-01-25T00:29:05;102845.70;;;7.96;45.82
84224;BME280;74353;51.208;0.304;2024-01-25T00:31:31;102844.53;;;7.95;45.57
84224;BME280;74353;51.208;0.304;2024-01-25T00:34:01;102840.99;;;7.95;45.35
84224;BME280;74353;51.208;0.304;2024-01-25T00:36:32;102836.64;;;7.67;45.65
84224;BME280;74353;51.208;0.304;2024-01-25T00:38:57;102840.84;;;7.83;45.54
84224;BME280;74353;51.208;0.304;2024-01-25T00:41:23;102840.15;;;7.78;45.46
84224;BME280;74353;51.208;0.304;2024-01-25T00:43:51;102835.13;;;7.88;45.77
84224;BME280;74353;51.208;0.304;2024-01-25T00:46:16;102836.35;;;7.84;45.33
84224;BME280;74353;51.208;0.304;2024-01-25T00:48:44;102835.76;;;7.46;45.41
84224;BME280;74353;51.208;0.304;2024-01-25T00:51:14;102832.44;;;7.40;45.57
84224;BME280;74353;51.208;0.304;2024-01-25T00:53:38;102830.58;;;7.41;45.75
84224;BME280;74353;51.208;0.304;2024-01-25T00:56:03;102829.84;;;7.55;46.73
84224;BME280;74353;51.208;0.304;2024-01-25T00:58:32;102832.69;;;7.32;46.28
84224;BME280;74353;51.208;0.304;2024-01-25T01:00:57;102829.29;;;7.47;45.90
84224;BME280;74353;51.208;0.304;2024-01-25T01:03:23;102831.37;;;7.63;45.65
84224;BME280;74353;51.208;0.304;2024-01-25T01:05:48;102824.06;;;7.14;45.83
84224;BME280;74353;51.208;0.304;2024-01-25T01:08:15;102823.13;;;7.36;45.75
84224;BME280;74353;51.208;0.304;2024-01-25T01:10:40;102825.29;;;7.19;45.59
84224;BME280;74353;51.208;0.304;2024-01-25T01:13:06;102822.00;;;6.92;45.92
84224;BME280;74353;51.208;0.304;2024-01-25T01:15:34;102820.47;;;7.12;46.55
84224;BME280;74353;51.208;0.304;2024-01-25T01:18:01;102818.95;;;7.28;46.04
84224;BME280;74353;51.208;0.304;2024-01-25T01:20:29;102815.36;;;7.23;45.72
84224;BME280;74353;51.208;0.304;2024-01-25T01:22:55;102812.30;;;6.98;45.68
84224;BME280;74353;51.208;0.304;2024-01-25T01:25:23;102810.87;;;7.10;45.72
84224;BME280;74353;51.208;0.304;2024-01-25T01:27:48;102811.36;;;6.94;45.80
84224;BME280;74353;51.208;0.304;2024-01-25T01:30:17;102814.14;;;6.72;45.84
84224;BME280;74353;51.208;0.304;2024-01-25T01:32:43;102816.14;;;6.74;45.68
84224;BME280;74353;51.208;0.304;2024-01-25T01:35:08;102811.72;;;6.89;45.72
84224;BME280;74353;51.208;0.304;2024-01-25T01:37:35;102811.28;;;6.75;45.76
84224;BME280;74353;51.208;0.304;2024-01-25T01:40:00;102812.95;;;6.78;45.59
84224;BME280;74353;51.208;0.304;2024-01-25T01:42:27;102806.30;;;6.56;45.64
84224;BME280;74353;51.208;0.304;2024-01-25T01:44:52;102803.37;;;6.75;45.94
84224;BME280;74353;51.208;0.304;2024-01-25T01:47:17;102805.80;;;6.99;46.07
84224;BME280;74353;51.208;0.304;2024-01-25T01:49:42;102802.79;;;6.65;45.69
84224;BME280;74353;51.208;0.304;2024-01-25T01:52:09;102805.22;;;6.56;45.46
84224;BME280;74353;51.208;0.304;2024-01-25T01:54:35;102805.92;;;6.35;45.63
84224;BME280;74353;51.208;0.304;2024-01-25T01:57:01;102803.87;;;6.39;45.62
84224;BME280;74353;51.208;0.304;2024-01-25T01:59:27;102797.75;;;6.36;45.72
84224;BME280;74353;51.208;0.304;2024-01-25T02:01:55;102795.13;;;6.40;45.38
84224;BME280;74353;51.208;0.304;2024-01-25T02:04:20;102791.86;;;6.17;45.54
84224;BME280;74353;51.208;0.304;2024-01-25T02:06:47;102794.37;;;6.62;45.38
84224;BME280;74353;51.208;0.304;2024-01-25T02:09:13;102793.92;;;6.22;45.86
84224;BME280;74353;51.208;0.304;2024-01-25T02:11:42;102799.21;;;6.11;45.81
84224;BME280;74353;51.208;0.304;2024-01-25T02:14:09;102798.08;;;6.08;45.89
84224;BME280;74353;51.208;0.304;2024-01-25T02:16:37;102793.44;;;6.33;46.40
84224;BME280;74353;51.208;0.304;2024-01-25T02:19:03;102788.06;;;5.92;45.82
84224;BME280;74353;51.208;0.304;2024-01-25T02:21:33;102785.57;;;5.81;45.84
84224;BME280;74353;51.208;0.304;2024-01-25T02:23:58;102784.27;;;5.80;45.62
84224;BME280;74353;51.208;0.304;2024-01-25T02:26:24;102783.50;;;5.98;45.73
84224;BME280;74353;51.208;0.304;2024-01-25T02:28:50;102784.23;;;6.10;45.48
84224;BME280;74353;51.208;0.304;2024-01-25T02:31:18;102787.39;;;5.73;45.81
84224;BME280;74353;51.208;0.304;2024-01-25T02:33:46;102780.84;;;5.72;46.22
84224;BME280;74353;51.208;0.304;2024-01-25T02:36:13;102775.28;;;5.63;46.62
84224;BME280;74353;51.208;0.304;2024-01-25T02:38:45;102772.16;;;6.22;46.24
84224;BME280;74353;51.208;0.304;2024-01-25T02:41:12;102769.47;;;5.99;46.41
84224;BME280;74353;51.208;0.304;2024-01-25T02:43:38;102762.45;;;5.48;46.37
84224;BME280;74353;51.208;0.304;2024-01-25T02:46:03;102761.04;;;5.99;46.48
84224;BME280;74353;51.208;0.304;2024-01-25T02:48:29;102763.81;;;5.97;46.28
84224;BME280;74353;51.208;0.304;2024-01-25T02:50:54;102776.59;;;5.91;46.23
84224;BME280;74353;51.208;0.304;2024-01-25T02:53:22;102783.02;;;6.19;46.09
84224;BME280;74353;51.208;0.304;2024-01-25T02:55:48;102783.13;;;5.90;46.24
84224;BME280;74353;51.208;0.304;2024-01-25T02:58:18;102785.44;;;5.92;46.14
84224;BME280;74353;51.208;0.304;2024-01-25T03:00:38;102787.16;;;5.65;46.53
84224;BME280;74353;51.208;0.304;2024-01-25T03:03:04;102783.12;;;5.61;46.92
84224;BME280;74353;51.208;0.304;2024-01-25T03:05:30;102770.35;;;6.08;46.65
84224;BME280;74353;51.208;0.304;2024-01-25T03:07:54;102764.30;;;5.38;46.93
84224;BME280;74353;51.208;0.304;2024-01-25T03:10:20;102757.69;;;5.89;46.80
84224;BME280;74353;51.208;0.304;2024-01-25T03:12:46;102758.20;;;5.23;47.14
84224;BME280;74353;51.208;0.304;2024-01-25T03:15:12;102755.45;;;5.58;46.67
84224;BME280;74353;51.208;0.304;2024-01-25T03:17:40;102756.68;;;5.86;46.69
84224;BME280;74353;51.208;0.304;2024-01-25T03:20:07;102758.03;;;5.93;46.57
84224;BME280;74353;51.208;0.304;2024-01-25T03:22:33;102762.64;;;5.82;46.73
84224;BME280;74353;51.208;0.304;2024-01-25T03:24:59;102767.02;;;5.70;47.09
84224;BME280;74353;51.208;0.304;2024-01-25T03:27:26;102760.25;;;5.72;47.48
84224;BME280;74353;51.208;0.304;2024-01-25T03:29:53;102742.73;;;5.85;47.59
84224;BME280;74353;51.208;0.304;2024-01-25T03:32:21;102732.40;;;5.73;47.69
84224;BME280;74353;51.208;0.304;2024-01-25T03:34:46;102727.59;;;5.52;47.68
84224;BME280;74353;51.208;0.304;2024-01-25T03:37:11;102727.82;;;5.56;47.72
84224;BME280;74353;51.208;0.304;2024-01-25T03:39:39;102724.33;;;5.63;47.82
84224;BME280;74353;51.208;0.304;2024-01-25T03:42:05;102725.60;;;5.82;47.95
84224;BME280;74353;51.208;0.304;2024-01-25T03:44:31;102737.05;;;5.87;47.94
84224;BME280;74353;51.208;0.304;2024-01-25T03:46:58;102735.91;;;5.86;48.36
84224;BME280;74353;51.208;0.304;2024-01-25T03:49:24;102735.62;;;5.99;48.10
84224;BME280;74353;51.208;0.304;2024-01-25T03:51:51;102730.28;;;5.98;48.11
84224;BME280;74353;51.208;0.304;2024-01-25T03:54:18;102728.79;;;6.11;48.47
84224;BME280;74353;51.208;0.304;2024-01-25T03:56:45;102725.28;;;5.54;48.53
84224;BME280;74353;51.208;0.304;2024-01-25T03:59:11;102720.02;;;5.80;49.04
84224;BME280;74353;51.208;0.304;2024-01-25T04:01:41;102710.04;;;5.78;48.98
84224;BME280;74353;51.208;0.304;2024-01-25T04:04:02;102707.01;;;6.09;48.81
84224;BME280;74353;51.208;0.304;2024-01-25T04:06:31;102706.83;;;5.98;48.61
84224;BME280;74353;51.208;0.304;2024-01-25T04:08:57;102706.26;;;5.77;48.59
84224;BME280;74353;51.208;0.304;2024-01-25T04:11:24;102712.75;;;6.08;48.50
84224;BME280;74353;51.208;0.304;2024-01-25T04:13:49;102720.91;;;5.60;49.02
84224;BME280;74353;51.208;0.304;2024-01-25T04:16:17;102715.26;;;6.21;48.98
84224;BME280;74353;51.208;0.304;2024-01-25T04:18:44;102712.14;;;6.38;48.65
84224;BME280;74353;51.208;0.304;2024-01-25T04:21:09;102723.65;;;6.18;49.21
84224;BME280;74353;51.208;0.304;2024-01-25T04:23:35;102720.38;;;6.15;48.95
84224;BME280;74353;51.208;0.304;2024-01-25T04:26:01;102718.18;;;5.75;49.36
84224;BME280;74353;51.208;0.304;2024-01-25T04:28:28;102705.47;;;6.19;49.09
84224;BME280;74353;51.208;0.304;2024-01-25T04:30:55;102704.05;;;5.82;49.42
84224;BME280;74353;51.208;0.304;2024-01-25T04:33:22;102701.58;;;5.94;49.19
84224;BME280;74353;51.208;0.304;2024-01-25T04:35:47;102700.06;;;6.08;49.36
84224;BME280;74353;51.208;0.304;2024-01-25T04:38:13;102696.45;;;6.19;49.33
84224;BME280;74353;51.208;0.304;2024-01-25T04:40:39;102693.12;;;6.45;49.28
84224;BME280;74353;51.208;0.304;2024-01-25T04:43:13;102694.87;;;5.97;49.41
84224;BME280;74353;51.208;0.304;2024-01-25T04:45:34;102699.99;;;5.77;49.77
84224;BME280;74353;51.208;0.304;2024-01-25T04:48:00;102699.19;;;6.03;49.50
84224;BME280;74353;51.208;0.304;2024-01-25T04:50:26;102699.55;;;6.25;49.11
84224;BME280;74353;51.208;0.304;2024-01-25T04:52:56;102695.81;;;6.27;49.03
84224;BME280;74353;51.208;0.304;2024-01-25T04:55:18;102689.44;;;6.32;49.28
84224;BME280;74353;51.208;0.304;2024-01-25T04:57:43;102683.12;;;6.32;49.25
84224;BME280;74353;51.208;0.304;2024-01-25T05:00:10;102677.35;;;6.15;49.26
84224;BME280;74353;51.208;0.304;2024-01-25T05:02:34;102673.10;;;6.44;49.41
84224;BME280;74353;51.208;0.304;2024-01-25T05:04:59;102666.70;;;6.23;49.06
84224;BME280;74353;51.208;0.304;2024-01-25T05:07:27;102666.68;;;6.15;49.29
84224;BME280;74353;51.208;0.304;2024-01-25T05:09:55;102667.88;;;6.24;49.21
84224;BME280;74353;51.208;0.304;2024-01-25T05:12:23;102671.50;;;6.19;49.31
84224;BME280;74353;51.208;0.304;2024-01-25T05:14:49;102672.67;;;6.83;49.11
84224;BME280;74353;51.208;0.304;2024-01-25T05:17:14;102670.91;;;6.26;49.29
84224;BME280;74353;51.208;0.304;2024-01-25T05:19:41;102672.70;;;6.44;49.49
84224;BME280;74353;51.208;0.304;2024-01-25T05:22:07;102671.11;;;6.40;49.36
84224;BME280;74353;51.208;0.304;2024-01-25T05:24:34;102667.41;;;6.51;49.51
84224;BME280;74353;51.208;0.304;2024-01-25T05:26:59;102664.97;;;6.71;49.25
84224;BME280;74353;51.208;0.304;2024-01-25T05:29:25;102665.36;;;6.44;49.33
84224;BME280;74353;51.208;0.304;2024-01-25T05:31:52;102669.85;;;6.54;49.19
84224;BME280;74353;51.208;0.304;2024-01-25T05:34:17;102669.02;;;6.44;49.43
84224;BME280;74353;51.208;0.304;2024-01-25T05:36:42;102666.60;;;6.73;48.94
84224;BME280;74353;51.208;0.304;2024-01-25T05:39:10;102665.97;;;6.53;49.28
84224;BME280;74353;51.208;0.304;2024-01-25T05:41:37;102667.43;;;6.53;49.28
84224;BME280;74353;51.208;0.304;2024-01-25T05:44:03;102672.25;;;6.66;49.08
84224;BME280;74353;51.208;0.304;2024-01-25T05:46:28;102669.19;;;6.56;49.26
84224;BME280;74353;51.208;0.304;2024-01-25T05:48:53;102671.97;;;6.84;49.62
84224;BME280;74353;51.208;0.304;2024-01-25T05:51:21;102668.52;;;6.61;49.29
84224;BME280;74353;51.208;0.304;2024-01-25T05:53:46;102666.93;;;6.52;49.55
84224;BME280;74353;51.208;0.304;2024-01-25T05:56:12;102664.26;;;6.73;49.22
84224;BME280;74353;51.208;0.304;2024-01-25T05:58:38;102659.82;;;6.86;49.11
84224;BME280;74353;51.208;0.304;2024-01-25T06:01:03;102667.81;;;6.74;49.36
84224;BME280;74353;51.208;0.304;2024-01-25T06:03:28;102670.18;;;6.68;49.48
84224;BME280;74353;51.208;0.304;2024-01-25T06:05:54;102663.62;;;6.61;49.68
84224;BME280;74353;51.208;0.304;2024-01-25T06:08:21;102663.08;;;6.77;49.49
84224;BME280;74353;51.208;0.304;2024-01-25T06:10:49;102660.59;;;6.27;49.55
84224;BME280;74353;51.208;0.304;2024-01-25T06:13:17;102655.44;;;6.85;49.37
84224;BME280;74353;51.208;0.304;2024-01-25T06:15:42;102650.00;;;6.76;49.42
84224;BME280;74353;51.208;0.304;2024-01-25T06:18:09;102652.38;;;6.91;49.30
84224;BME280;74353;51.208;0.304;2024-01-25T06:20:34;102648.37;;;6.85;49.44
84224;BME280;74353;51.208;0.304;2024-01-25T06:23:00;102653.07;;;6.93;49.34
84224;BME280;74353;51.208;0.304;2024-01-25T06:25:25;102656.41;;;6.81;49.56
84224;BME280;74353;51.208;0.304;2024-01-25T06:27:50;102658.42;;;6.83;49.58
84224;BME280;74353;51.208;0.304;2024-01-25T06:30:18;102655.07;;;6.80;49.86
84224;BME280;74353;51.208;0.304;2024-01-25T06:32:44;102651.97;;;6.92;49.82
84224;BME280;74353;51.208;0.304;2024-01-25T06:35:09;102650.13;;;6.91;49.78
84224;BME280;74353;51.208;0.304;2024-01-25T06:37:37;102645.66;;;7.06;49.59
84224;BME280;74353;51.208;0.304;2024-01-25T06:40:07;102645.44;;;6.86;49.99
84224;BME280;74353;51.208;0.304;2024-01-25T06:42:32;102645.91;;;6.90;49.94
84224;BME280;74353;51.208;0.304;2024-01-25T06:44:57;102643.04;;;6.94;49.95
84224;BME280;74353;51.208;0.304;2024-01-25T06:47:23;102641.08;;;7.04;49.79
84224;BME280;74353;51.208;0.304;2024-01-25T06:49:50;102638.88;;;6.82;49.90
84224;BME280;74353;51.208;0.304;2024-01-25T06:52:18;102630.82;;;7.23;49.70
84224;BME280;74353;51.208;0.304;2024-01-25T06:54:46;102632.58;;;6.99;50.19
84224;BME280;74353;51.208;0.304;2024-01-25T06:57:11;102632.74;;;7.12;50.04
84224;BME280;74353;51.208;0.304;2024-01-25T06:59:39;102628.25;;;6.97;49.97
84224;BME280;74353;51.208;0.304;2024-01-25T07:02:05;102633.63;;;7.08;50.28
84224;BME280;74353;51.208;0.304;2024-01-25T07:04:31;102630.62;;;7.00;50.08
84224;BME280;74353;51.208;0.304;2024-01-25T07:06:56;102636.35;;;6.80;50.03
84224;BME280;74353;51.208;0.304;2024-01-25T07:09:22;102633.87;;;6.83;50.03
84224;BME280;74353;51.208;0.304;2024-01-25T07:11:47;102634.58;;;6.90;50.41
84224;BME280;74353;51.208;0.304;2024-01-25T07:14:13;102635.52;;;7.26;50.28
84224;BME280;74353;51.208;0.304;2024-01-25T07:16:40;102633.31;;;7.23;50.44
84224;BME280;74353;51.208;0.304;2024-01-25T07:19:06;102626.94;;;7.27;50.39
84224;BME280;74353;51.208;0.304;2024-01-25T07:21:31;102625.09;;;7.37;50.23
84224;BME280;74353;51.208;0.304;2024-01-25T07:23:56;102617.39;;;7.15;50.25
84224;BME280;74353;51.208;0.304;2024-01-25T07:26:24;102618.44;;;7.27;50.55
84224;BME280;74353;51.208;0.304;2024-01-25T07:28:50;102612.63;;;7.49;50.32
84224;BME280;74353;51.208;0.304;2024-01-25T07:31:17;102617.28;;;7.19;50.52
84224;BME280;74353;51.208;0.304;2024-01-25T07:33:43;102620.77;;;7.27;50.33
84224;BME280;74353;51.208;0.304;2024-01-25T07:36:10;102620.87;;;7.31;50.40
84224;BME280;74353;51.208;0.304;2024-01-25T07:38:37;102623.68;;;7.24;50.67
84224;BME280;74353;51.208;0.304;2024-01-25T07:41:05;102613.33;;;7.24;50.67
84224;BME280;74353;51.208;0.304;2024-01-25T07:43:30;102612.43;;;7.27;50.75
84224;BME280;74353;51.208;0.304;2024-01-25T07:45:55;102610.55;;;7.38;50.52
84224;BME280;74353;51.208;0.304;2024-01-25T07:48:22;102605.51;;;7.39;50.58
84224;BME280;74353;51.208;0.304;2024-01-25T07:50:47;102598.56;;;7.42;50.61
84224;BME280;74353;51.208;0.304;2024-01-25T07:53:13;102590.79;;;7.68;50.65
84224;BME280;74353;51.208;0.304;2024-01-25T07:55:39;102589.65;;;7.42;50.77
84224;BME280;74353;51.208;0.304;2024-01-25T07:58:06;102594.46;;;7.62;50.98
84224;BME280;74353;51.208;0.304;2024-01-25T08:00:30;102596.09;;;7.34;50.74
84224;BME280;74353;51.208;0.304;2024-01-25T08:02:55;102594.76;;;7.44;51.05
84224;BME280;74353;51.208;0.304;2024-01-25T08:05:22;102594.13;;;7.56;50.89
84224;BME280;74353;51.208;0.304;2024-01-25T08:07:48;102595.19;;;7.63;50.91
84224;BME280;74353;51.208;0.304;2024-01-25T08:10:14;102589.21;;;7.72;51.32
84224;BME280;74353;51.208;0.304;2024-01-25T08:12:42;102579.55;;;7.37;51.17
84224;BME280;74353;51.208;0.304;2024-01-25T08:15:10;102572.92;;;7.49;51.03
84224;BME280;74353;51.208;0.304;2024-01-25T08:17:37;102568.95;;;7.72;51.21
84224;BME280;74353;51.208;0.304;2024-01-25T08:20:03;102569.50;;;7.75;51.11
84224;BME280;74353;51.208;0.304;2024-01-25T08:22:29;102569.99;;;7.31;51.65
84224;BME280;74353;51.208;0.304;2024-01-25T08:24:55;102578.70;;;7.38;51.66
84224;BME280;74353;51.208;0.304;2024-01-25T08:27:22;102573.67;;;7.74;51.60
84224;BME280;74353;51.208;0.304;2024-01-25T08:29:48;102569.58;;;7.65;51.43
84224;BME280;74353;51.208;0.304;2024-01-25T08:32:14;102566.61;;;7.74;51.70
84224;BME280;74353;51.208;0.304;2024-01-25T08:34:40;102564.61;;;7.92;51.49
84224;BME280;74353;51.208;0.304;2024-01-25T08:37:08;102568.82;;;7.75;51.51
84224;BME280;74353;51.208;0.304;2024-01-25T08:39:35;102562.26;;;7.50;52.12
84224;BME280;74353;51.208;0.304;2024-01-25T08:42:01;102564.50;;;7.87;51.95
84224;BME280;74353;51.208;0.304;2024-01-25T08:44:29;102561.34;;;7.80;51.79
84224;BME280;74353;51.208;0.304;2024-01-25T08:46:55;102559.28;;;7.80;51.98
84224;BME280;74353;51.208;0.304;2024-01-25T08:49:20;102553.99;;;8.04;52.16
84224;BME280;74353;51.208;0.304;2024-01-25T08:51:47;102548.59;;;7.77;52.52
84224;BME280;74353;51.208;0.304;2024-01-25T08:54:14;102548.64;;;7.85;52.51
84224;BME280;74353;51.208;0.304;2024-01-25T08:56:41;102539.34;;;7.91;52.51
84224;BME280;74353;51.208;0.304;2024-01-25T08:59:10;102534.79;;;8.00;52.41
84224;BME280;74353;51.208;0.304;2024-01-25T09:01:36;102527.72;;;8.33;52.44
84224;BME280;74353;51.208;0.304;2024-01-25T09:04:04;102514.51;;;7.84;52.58
84224;BME280;74353;51.208;0.304;2024-01-25T09:06:30;102512.22;;;7.92;52.61
84224;BME280;74353;51.208;0.304;2024-01-25T09:08:56;102513.26;;;7.94;52.71
84224;BME280;74353;51.208;0.304;2024-01-25T09:11:24;102516.95;;;8.16;52.92
84224;BME280;74353;51.208;0.304;2024-01-25T09:13:52;102516.21;;;8.30;52.81
84224;BME280;74353;51.208;0.304;2024-01-25T09:16:18;102520.03;;;8.26;53.11
84224;BME280;74353;51.208;0.304;2024-01-25T09:18:43;102520.86;;;8.41;52.89
84224;BME280;74353;51.208;0.304;2024-01-25T09:21:09;102510.42;;;8.44;53.14
84224;BME280;74353;51.208;0.304;2024-01-25T09:23:35;102511.65;;;8.43;53.23
84224;BME280;74353;51.208;0.304;2024-01-25T09:26:01;102508.76;;;8.57;53.15
84224;BME280;74353;51.208;0.304;2024-01-25T09:28:27;102497.85;;;8.65;53.13
84224;BME280;74353;51.208;0.304;2024-01-25T09:30:54;102494.88;;;8.34;53.31
84224;BME280;74353;51.208;0.304;2024-01-25T09:33:21;102497.88;;;8.83;53.02
84224;BME280;74353;51.208;0.304;2024-01-25T09:35:46;102502.99;;;8.36;53.21
84224;BME280;74353;51.208;0.304;2024-01-25T09:38:14;102511.64;;;8.58;52.97
84224;BME280;74353;51.208;0.304;2024-01-25T09:40:40;102517.80;;;8.70;53.24
84224;BME280;74353;51.208;0.304;2024-01-25T09:43:06;102518.30;;;8.76;53.32
84224;BME280;74353;51.208;0.304;2024-01-25T09:45:31;102516.71;;;8.66;53.12
84224;BME280;74353;51.208;0.304;2024-01-25T09:47:57;102516.56;;;8.58;53.49
84224;BME280;74353;51.208;0.304;2024-01-25T09:50:22;102506.09;;;8.71;53.35
84224;BME280;74353;51.208;0.304;2024-01-25T09:52:53;102500.36;;;8.58;53.61
84224;BME280;74353;51.208;0.304;2024-01-25T09:55:17;102499.43;;;8.91;53.26
84224;BME280;74353;51.208;0.304;2024-01-25T09:57:45;102501.79;;;8.85;53.51
84224;BME280;74353;51.208;0.304;2024-01-25T10:00:07;102501.27;;;8.73;53.86
84224;BME280;74353;51.208;0.304;2024-01-25T10:02:33;102503.33;;;8.93;53.74
84224;BME280;74353;51.208;0.304;2024-01-25T10:04:58;102506.71;;;9.01;53.63
84224;BME280;74353;51.208;0.304;2024-01-25T10:07:37;102506.47;;;9.04;53.85
84224;BME280;74353;51.208;0.304;2024-01-25T10:09:50;102506.89;;;9.11;53.95
84224;BME280;74353;51.208;0.304;2024-01-25T10:12:15;102505.06;;;9.25;53.96
84224;BME280;74353;51.208;0.304;2024-01-25T10:14:40;102508.00;;;9.50;53.81
84224;BME280;74353;51.208;0.304;2024-01-25T10:17:09;102504.45;;;9.32;54.36
84224;BME280;74353;51.208;0.304;2024-01-25T10:19:35;102494.36;;;9.38;54.62
84224;BME280;74353;51.208;0.304;2024-01-25T10:22:01;102491.55;;;9.67;54.35
84224;BME280;74353;51.208;0.304;2024-01-25T10:24:28;102490.81;;;9.64;54.89
84224;BME280;74353;51.208;0.304;2024-01-25T10:26:54;102486.96;;;9.63;55.21
84224;BME280;74353;51.208;0.304;2024-01-25T10:29:20;102491.72;;;9.74;54.79
84224;BME280;74353;51.208;0.304;2024-01-25T10:31:48;102488.76;;;9.83;54.98
84224;BME280;74353;51.208;0.304;2024-01-25T10:34:16;102487.00;;;9.83;55.44
84224;BME280;74353;51.208;0.304;2024-01-25T10:36:40;102489.19;;;10.22;55.38
84224;BME280;74353;51.208;0.304;2024-01-25T10:39:08;102488.45;;;10.19;55.16
84224;BME280;74353;51.208;0.304;2024-01-25T10:41:35;102486.42;;;9.96;55.32
84224;BME280;74353;51.208;0.304;2024-01-25T10:44:03;102481.81;;;9.98;55.60
84224;BME280;74353;51.208;0.304;2024-01-25T10:46:29;102481.29;;;10.16;55.30
84224;BME280;74353;51.208;0.304;2024-01-25T10:48:57;102484.32;;;10.35;55.97
84224;BME280;74353;51.208;0.304;2024-01-25T10:51:20;102484.03;;;10.49;55.93
84224;BME280;74353;51.208;0.304;2024-01-25T10:53:45;102482.25;;;10.86;55.82
84224;BME280;74353;51.208;0.304;2024-01-25T10:56:12;102474.80;;;10.91;55.57
84224;BME280;74353;51.208;0.304;2024-01-25T10:58:41;102476.68;;;10.88;55.58
84224;BME280;74353;51.208;0.304;2024-01-25T11:01:10;102476.97;;;10.67;55.77
84224;BME280;74353;51.208;0.304;2024-01-25T11:03:34;102476.10;;;10.66;56.17
84224;BME280;74353;51.208;0.304;2024-01-25T11:06:06;102472.22;;;10.83;56.14
84224;BME280;74353;51.208;0.304;2024-01-25T11:08:28;102468.00;;;11.04;55.84
84224;BME280;74353;51.208;0.304;2024-01-25T11:10:56;102467.11;;;10.51;56.28
84224;BME280;74353;51.208;0.304;2024-01-25T11:13:26;102468.55;;;10.80;55.74
84224;BME280;74353;51.208;0.304;2024-01-25T11:15:50;102460.48;;;10.87;55.53
84224;BME280;74353;51.208;0.304;2024-01-25T11:18:18;102459.40;;;11.29;55.08
84224;BME280;74353;51.208;0.304;2024-01-25T11:20:47;102450.80;;;11.12;55.51
84224;BME280;74353;51.208;0.304;2024-01-25T11:23:15;102449.93;;;11.35;55.17
84224;BME280;74353;51.208;0.304;2024-01-25T11:25:38;102444.38;;;11.26;54.82
84224;BME280;74353;51.208;0.304;2024-01-25T11:28:06;102442.57;;;11.27;54.87
84224;BME280;74353;51.208;0.304;2024-01-25T11:30:33;102447.04;;;11.58;54.90
84224;BME280;74353;51.208;0.304;2024-01-25T11:32:57;102440.19;;;11.23;55.14
84224;BME280;74353;51.208;0.304;2024-01-25T11:35:22;102439.84;;;11.31;55.08
84224;BME280;74353;51.208;0.304;2024-01-25T11:37:49;102433.69;;;11.51;54.52
84224;BME280;74353;51.208;0.304;2024-01-25T11:40:15;102435.12;;;11.59;54.72
84224;BME280;74353;51.208;0.304;2024-01-25T11:42:41;102435.53;;;11.46;54.47
84224;BME280;74353;51.208;0.304;2024-01-25T11:45:08;102430.15;;;11.55;54.18
84224;BME280;74353;51.208;0.304;2024-01-25T11:47:34;102424.34;;;11.63;54.11
84224;BME280;74353;51.208;0.304;2024-01-25T11:49:59;102424.35;;;11.76;53.96
84224;BME280;74353;51.208;0.304;2024-01-25T11:52:27;102421.47;;;11.80;53.82
84224;BME280;74353;51.208;0.304;2024-01-25T11:54:53;102425.20;;;11.68;54.14
84224;BME280;74353;51.208;0.304;2024-01-25T11:57:18;102421.62;;;11.85;54.06
84224;BME280;74353;51.208;0.304;2024-01-25T11:59:45;102416.93;;;11.67;54.50
84224;BME280;74353;51.208;0.304;2024-01-25T12:02:11;102408.27;;;11.92;54.09
84224;BME280;74353;51.208;0.304;2024-01-25T12:04:39;102406.43;;;11.90;54.34
84224;BME280;74353;51.208;0.304;2024-01-25T12:07:04;102406.49;;;12.06;53.95
84224;BME280;74353;51.208;0.304;2024-01-25T12:09:29;102401.97;;;11.97;54.13
84224;BME280;74353;51.208;0.304;2024-01-25T12:12:00;102390.80;;;12.08;54.16
84224;BME280;74353;51.208;0.304;2024-01-25T12:14:24;102384.27;;;12.01;53.76
84224;BME280;74353;51.208;0.304;2024-01-25T12:16:51;102379.22;;;12.19;53.84
84224;BME280;74353;51.208;0.304;2024-01-25T12:19:20;102379.47;;;12.31;53.70
84224;BME280;74353;51.208;0.304;2024-01-25T12:21:45;102378.76;;;11.73;53.94
84224;BME280;74353;51.208;0.304;2024-01-25T12:24:19;102375.79;;;12.13;53.57
84224;BME280;74353;51.208;0.304;2024-01-25T12:26:41;102373.77;;;12.36;53.19
84224;BME280;74353;51.208;0.304;2024-01-25T12:29:06;102371.88;;;12.30;53.38
84224;BME280;74353;51.208;0.304;2024-01-25T12:31:31;102373.13;;;12.45;53.09
84224;BME280;74353;51.208;0.304;2024-01-25T12:34:00;102370.94;;;12.15;53.32
84224;BME280;74353;51.208;0.304;2024-01-25T12:36:32;102364.24;;;12.16;53.30
84224;BME280;74353;51.208;0.304;2024-01-25T12:38:53;102360.18;;;12.39;52.76
84224;BME280;74353;51.208;0.304;2024-01-25T12:41:19;102354.20;;;12.44;52.87
84224;BME280;74353;51.208;0.304;2024-01-25T12:43:44;102357.79;;;12.82;53.01
84224;BME280;74353;51.208;0.304;2024-01-25T12:46:09;102345.77;;;12.66;52.85
84224;BME280;74353;51.208;0.304;2024-01-25T12:48:35;102339.00;;;12.83;52.45
84224;BME280;74353;51.208;0.304;2024-01-25T12:51:03;102339.93;;;12.44;52.76
84224;BME280;74353;51.208;0.304;2024-01-25T12:53:28;102343.51;;;12.46;52.85